Time;durP1;ratioP1;P1;durP2;ratioP2;P2;SDS_P1;SDS_P2;PMS_P1;PMS_P2;Temp;Humidity;BMP_temperature;BMP_pressure;BME280_temperature;BME280_humidity;BME280_pressure;Samples;Min_cycle;Max_cycle;Signal;HPM_P1;HPM_P2
2021/03/29 00:01:29;;;;;;;14.93;6.25;;;;;;;7.76;100.00;102642.22;5036532;28;20049;-68
2021/03/29 00:03:55;;;;;;;18.20;5.47;;;;;;;7.63;100.00;102644.06;5034979;28;20057;-69
2021/03/29 00:06:21;;;;;;;12.57;4.80;;;;;;;7.79;100.00;102640.47;5038079;28;20090;-69
2021/03/29 00:08:48;;;;;;;17.05;5.22;;;;;;;7.71;100.00;102634.34;5041871;28;20041;-69
2021/03/29 00:11:13;;;;;;;14.63;4.82;;;;;;;7.76;100.00;102639.59;5038653;28;20040;-68
2021/03/29 00:13:39;;;;;;;11.77;4.65;;;;;;;7.77;100.00;102638.72;5037899;28;20025;-69
2021/03/29 00:16:06;;;;;;;12.27;5.05;;;;;;;7.71;100.00;102644.88;5038893;28;20051;-69
2021/03/29 00:18:31;;;;;;;16.33;5.63;;;;;;;7.79;100.00;102647.50;5038611;28;20056;-69
2021/03/29 00:21:06;;;;;;;14.65;4.68;;;;;;;7.96;100.00;102644.78;5033922;28;20162;-69
2021/03/29 00:23:32;;;;;;;14.10;5.05;;;;;;;7.79;100.00;102651.00;5018937;28;20132;-69
2021/03/29 00:25:57;;;;;;;14.80;5.93;;;;;;;7.94;100.00;102644.78;5036425;28;20873;-69
2021/03/29 00:28:22;;;;;;;14.30;5.20;;;;;;;8.03;100.00;102651.75;5038499;28;20060;-68
2021/03/29 00:30:51;;;;;;;15.50;5.97;;;;;;;8.07;100.00;102642.94;5039633;28;20052;-69
2021/03/29 00:33:17;;;;;;;13.30;6.53;;;;;;;8.17;100.00;102641.16;5043134;28;20040;-69
2021/03/29 00:35:46;;;;;;;19.17;5.50;;;;;;;8.16;100.00;102639.41;5040762;28;20044;-69
2021/03/29 00:38:14;;;;;;;9.75;5.00;;;;;;;8.16;100.00;102656.06;5039799;28;20033;-69
2021/03/29 00:40:43;;;;;;;17.77;6.20;;;;;;;8.05;100.00;102644.72;5042914;28;20083;-69
2021/03/29 00:43:26;;;;;;;19.30;6.40;;;;;;;7.99;100.00;102639.50;5036286;28;20033;-69
2021/03/29 00:45:53;;;;;;;21.05;6.93;;;;;;;8.03;100.00;102639.47;5035656;28;20056;-69
2021/03/29 00:48:21;;;;;;;12.70;5.75;;;;;;;8.14;100.00;102649.09;5037084;28;20124;-69
2021/03/29 00:51:01;;;;;;;13.38;5.75;;;;;;;8.13;100.00;102631.50;5036103;28;20033;-69
2021/03/29 00:53:27;;;;;;;19.67;6.05;;;;;;;8.13;100.00;102637.66;5017159;28;20048;-69
2021/03/29 00:55:54;;;;;;;18.50;5.70;;;;;;;8.15;100.00;102622.72;5042517;28;20090;-69
2021/03/29 00:58:25;;;;;;;12.25;5.82;;;;;;;8.13;100.00;102624.47;5040281;28;20086;-69
2021/03/29 01:01:00;;;;;;;22.10;6.20;;;;;;;8.11;100.00;102633.28;5035222;28;20028;-69
2021/03/29 01:03:30;;;;;;;24.92;5.72;;;;;;;8.16;100.00;102627.09;5041677;28;20078;-69
2021/03/29 01:06:03;;;;;;;14.95;6.20;;;;;;;8.13;100.00;102632.38;5042392;28;20116;-69
2021/03/29 01:08:37;;;;;;;15.52;5.18;;;;;;;8.22;100.00;102636.72;5039296;28;20478;-69
2021/03/29 01:11:05;;;;;;;17.60;6.78;;;;;;;8.13;100.00;102627.09;5034491;28;20152;-69
2021/03/29 01:13:33;;;;;;;15.93;5.25;;;;;;;8.09;100.00;102625.41;5032002;28;20091;-69
2021/03/29 01:16:01;;;;;;;16.63;6.57;;;;;;;8.22;100.00;102624.44;5031997;28;20041;-69
2021/03/29 01:18:35;;;;;;;12.05;4.95;;;;;;;8.13;100.00;102620.97;5033425;28;20029;-69
2021/03/29 01:21:08;;;;;;;10.68;4.32;;;;;;;8.22;100.00;102616.53;5035734;28;20463;-69
2021/03/29 01:23:35;;;;;;;10.10;4.40;;;;;;;8.23;100.00;102625.31;5037517;28;20108;-69
2021/03/29 01:26:30;;;;;;;14.20;5.15;;;;;;;8.26;100.00;102620.03;5042878;28;20107;-68
2021/03/29 01:28:56;;;;;;;17.27;5.40;;;;;;;8.33;100.00;102619.09;5037121;28;20061;-68
2021/03/29 01:31:21;;;;;;;19.20;5.60;;;;;;;8.24;100.00;102629.72;5037329;28;20056;-69
2021/03/29 01:33:48;;;;;;;19.15;5.75;;;;;;;8.16;100.00;102631.50;5036235;28;20038;-68
2021/03/29 01:36:15;;;;;;;14.75;5.00;;;;;;;8.27;100.00;102630.53;5038821;28;20510;-69
2021/03/29 01:38:41;;;;;;;17.33;6.22;;;;;;;8.29;100.00;102639.31;5039718;28;20033;-67
2021/03/29 01:41:08;;;;;;;18.58;5.10;;;;;;;8.22;100.00;102636.72;5040717;28;20041;-67
2021/03/29 01:43:34;;;;;;;17.70;4.70;;;;;;;8.22;100.00;102640.22;5041076;28;20025;-68
2021/03/29 01:46:00;;;;;;;12.20;5.05;;;;;;;8.27;100.00;102641.06;5037896;28;20517;-70
2021/03/29 01:48:26;;;;;;;15.57;4.85;;;;;;;8.42;100.00;102636.63;5038761;28;20039;-70
2021/03/29 01:50:55;;;;;;;11.48;4.88;;;;;;;8.37;100.00;102641.94;5033692;28;20037;-69
2021/03/29 01:53:26;;;;;;;14.00;4.85;;;;;;;8.36;100.00;102634.00;5040413;28;20110;-69
2021/03/29 01:55:52;;;;;;;17.45;5.47;;;;;;;8.24;100.00;102640.25;5034017;28;20072;-70
2021/03/29 01:58:18;;;;;;;20.65;6.25;;;;;;;8.16;100.00;102635.00;5041799;28;20035;-70
2021/03/29 02:00:51;;;;;;;12.65;4.72;;;;;;;8.16;100.00;102636.78;5033180;28;20025;-70
2021/03/29 02:03:17;;;;;;;18.52;6.07;;;;;;;8.18;100.00;102632.34;5037467;28;20033;-68
2021/03/29 02:05:43;;;;;;;14.73;4.60;;;;;;;8.26;100.00;102631.44;5032428;28;20065;-67
2021/03/29 02:08:10;;;;;;;10.43;4.30;;;;;;;8.11;100.00;102633.28;5038106;28;20033;-67
2021/03/29 02:10:39;;;;;;;11.60;4.78;;;;;;;8.25;100.00;102637.59;5033172;28;20029;-67
2021/03/29 02:13:14;;;;;;;9.25;3.65;;;;;;;8.17;100.00;102634.13;5036162;28;20811;-67
2021/03/29 02:15:40;;;;;;;12.07;4.22;;;;;;;8.19;100.00;102632.38;5037846;28;20083;-67
2021/03/29 02:18:11;;;;;;;13.40;5.47;;;;;;;8.23;100.00;102638.47;5026670;28;20033;-67
2021/03/29 02:20:38;;;;;;;18.58;4.88;;;;;;;8.26;100.00;102639.34;5031999;28;20108;-68
2021/03/29 02:23:06;;;;;;;14.80;3.90;;;;;;;8.48;100.00;102633.94;5037587;28;20450;-70
2021/03/29 02:25:34;;;;;;;14.13;4.50;;;;;;;8.61;100.00;102648.78;5036569;28;20087;-70
2021/03/29 02:28:01;;;;;;;8.90;4.05;;;;;;;8.71;100.00;102639.06;5029492;28;20033;-67
2021/03/29 02:30:31;;;;;;;10.95;4.80;;;;;;;8.71;100.00;102641.69;5038320;28;20424;-68
2021/03/29 02:32:58;;;;;;;18.70;4.68;;;;;;;8.93;100.00;102653.78;5038512;28;20497;-70
2021/03/29 02:35:24;;;;;;;15.35;4.57;;;;;;;8.89;100.00;102641.56;5040154;28;20122;-68
2021/03/29 02:37:55;;;;;;;17.95;4.43;;;;;;;8.92;100.00;102646.78;5038208;28;20021;-67
2021/03/29 02:40:22;;;;;;;14.50;3.45;;;;;;;8.97;100.00;102646.75;5043069;28;20033;-67
2021/03/29 02:42:51;;;;;;;12.77;4.20;;;;;;;9.05;100.00;102643.16;5038266;28;20031;-67
2021/03/29 02:45:18;;;;;;;10.95;4.35;;;;;;;9.17;100.00;102650.06;5040830;28;20040;-67
2021/03/29 02:47:45;;;;;;;13.82;4.88;;;;;;;9.00;100.00;102638.81;5042650;28;20480;-67
2021/03/29 02:50:12;;;;;;;22.05;4.38;;;;;;;8.98;100.00;102643.22;5044633;28;20086;-68
2021/03/29 02:52:41;;;;;;;16.83;4.45;;;;;;;9.02;100.00;102640.53;5038340;28;20033;-68
2021/03/29 02:55:12;;;;;;;13.30;3.72;;;;;;;9.07;100.00;102646.63;5042114;28;20036;-67
2021/03/29 02:57:40;;;;;;;16.75;5.90;;;;;;;9.02;100.00;102651.09;5039826;28;20100;-67
2021/03/29 03:00:11;;;;;;;16.08;3.92;;;;;;;9.00;100.00;102649.34;5036726;28;20025;-67
2021/03/29 03:02:37;;;;;;;15.68;4.68;;;;;;;8.79;100.00;102647.78;5039799;28;20021;-67
2021/03/29 03:05:06;;;;;;;11.70;4.13;;;;;;;8.72;100.00;102653.97;5039959;28;20025;-67
2021/03/29 03:07:31;;;;;;;15.52;3.92;;;;;;;8.74;100.00;102649.59;5042169;28;20032;-67
2021/03/29 03:09:57;;;;;;;19.48;4.93;;;;;;;8.74;100.00;102657.50;5041674;28;20091;-67
2021/03/29 03:12:23;;;;;;;12.23;4.43;;;;;;;8.70;100.00;102650.50;5036777;28;20033;-67
2021/03/29 03:14:49;;;;;;;18.33;4.57;;;;;;;8.73;100.00;102648.69;5040109;28;20048;-70
2021/03/29 03:17:14;;;;;;;12.77;4.13;;;;;;;8.52;100.00;102647.09;5041286;28;20417;-70
2021/03/29 03:19:39;;;;;;;14.10;3.70;;;;;;;8.46;100.00;102652.41;5022936;28;20079;-70
2021/03/29 03:22:05;;;;;;;11.57;4.45;;;;;;;8.62;100.00;102626.81;5039638;28;20864;-67
2021/03/29 03:24:34;;;;;;;12.15;4.15;;;;;;;8.49;100.00;102631.31;5035019;28;20091;-70
2021/03/29 03:27:05;;;;;;;15.05;4.63;;;;;;;8.51;100.00;102632.16;5038609;28;20030;-70
2021/03/29 03:29:33;;;;;;;16.83;4.95;;;;;;;8.46;100.00;102622.56;5024847;28;20133;-70
2021/03/29 03:31:58;;;;;;;12.00;4.45;;;;;;;8.42;100.00;102634.00;5033736;28;20037;-70
2021/03/29 03:34:24;;;;;;;11.82;5.07;;;;;;;8.40;100.00;102633.16;5037227;28;20467;-69
2021/03/29 03:36:49;;;;;;;18.15;5.47;;;;;;;8.31;100.00;102639.31;5036186;28;20121;-67
2021/03/29 03:39:15;;;;;;;15.45;5.18;;;;;;;8.30;100.00;102634.94;5024127;28;20029;-70
2021/03/29 03:41:42;;;;;;;14.68;4.80;;;;;;;8.23;100.00;102627.94;5036372;28;20401;-70
2021/03/29 03:44:08;;;;;;;24.45;4.75;;;;;;;8.11;100.00;102633.28;5033388;28;20021;-67
2021/03/29 03:46:41;;;;;;;18.58;4.60;;;;;;;7.99;100.00;102631.59;5040096;28;20075;-67
2021/03/29 03:49:10;;;;;;;16.23;5.82;;;;;;;8.00;100.00;102641.25;5037130;28;20115;-67
2021/03/29 03:51:37;;;;;;;18.80;4.45;;;;;;;8.12;100.00;102642.94;5036369;28;20032;-67
2021/03/29 03:54:03;;;;;;;16.10;5.07;;;;;;;8.11;100.00;102636.78;5037844;28;20514;-69
2021/03/29 03:56:33;;;;;;;13.70;5.55;;;;;;;7.96;100.00;102644.78;5031859;28;20036;-70
2021/03/29 03:58:58;;;;;;;20.23;4.75;;;;;;;7.95;100.00;102643.03;5042422;28;20044;-70
2021/03/29 04:01:24;;;;;;;13.23;4.15;;;;;;;8.07;100.00;102642.09;5033544;28;20025;-70
2021/03/29 04:03:49;;;;;;;13.88;4.57;;;;;;;8.09;100.00;102648.22;5045722;28;20041;-70
2021/03/29 04:06:15;;;;;;;16.65;4.00;;;;;;;8.04;100.00;102645.63;5025386;28;20039;-67
2021/03/29 04:08:42;;;;;;;14.27;3.80;;;;;;;8.00;100.00;102643.88;5045154;28;20033;-70
2021/03/29 04:11:08;;;;;;;10.70;3.83;;;;;;;8.01;100.00;102638.59;5037387;28;20033;-70
2021/03/29 04:13:34;;;;;;;20.17;4.65;;;;;;;7.97;100.00;102650.03;5043012;28;20107;-70
2021/03/29 04:16:02;;;;;;;22.38;4.93;;;;;;;8.05;100.00;102645.59;5039341;28;20120;-70
2021/03/29 04:18:28;;;;;;;13.02;4.47;;;;;;;8.05;100.00;102642.09;5045096;28;20029;-70
2021/03/29 04:20:55;;;;;;;9.82;3.60;;;;;;;8.03;100.00;102646.47;5044259;28;20028;-67
2021/03/29 04:23:25;;;;;;;13.98;4.03;;;;;;;8.00;100.00;102652.66;5043989;28;20153;-70
2021/03/29 04:25:51;;;;;;;15.52;4.15;;;;;;;8.04;100.00;102664.06;5045985;28;20044;-70
2021/03/29 04:28:17;;;;;;;6.95;3.30;;;;;;;8.14;100.00;102663.13;5039067;28;20076;-70
2021/03/29 04:30:42;;;;;;;12.93;4.85;;;;;;;7.98;100.00;102648.25;5033444;28;20057;-70
2021/03/29 04:33:08;;;;;;;16.05;5.40;;;;;;;7.92;100.00;102657.06;5044580;28;20497;-69
2021/03/29 04:35:33;;;;;;;12.75;4.32;;;;;;;8.02;100.00;102652.63;5043393;28;20025;-70
2021/03/29 04:37:59;;;;;;;14.50;4.57;;;;;;;7.97;100.00;102664.94;5044114;28;21315;-70
2021/03/29 04:40:26;;;;;;;13.68;4.57;;;;;;;7.89;100.00;102657.09;5043216;28;20029;-70
2021/03/29 04:42:53;;;;;;;9.20;4.07;;;;;;;7.96;100.00;102660.56;5042373;28;20025;-70
2021/03/29 04:45:19;;;;;;;13.68;4.03;;;;;;;7.96;100.00;102661.44;5040974;28;20028;-70
2021/03/29 04:47:45;;;;;;;17.05;4.43;;;;;;;7.86;100.00;102651.84;5040281;28;20033;-70
2021/03/29 04:50:13;;;;;;;16.85;4.40;;;;;;;7.90;100.00;102655.34;5035722;28;20387;-69
2021/03/29 04:52:39;;;;;;;18.98;5.47;;;;;;;7.83;100.00;102657.13;5041152;28;20037;-70
2021/03/29 04:55:05;;;;;;;32.88;5.03;;;;;;;7.81;100.00;102650.97;5039315;28;20100;-70
2021/03/29 04:57:31;;;;;;;22.05;4.35;;;;;;;7.91;100.00;102657.09;5043999;28;20029;-70
2021/03/29 04:59:56;;;;;;;15.27;4.45;;;;;;;8.00;100.00;102659.69;5040236;28;20537;-70
2021/03/29 05:02:21;;;;;;;16.63;3.95;;;;;;;7.81;100.00;102656.25;5039228;28;20057;-70
2021/03/29 05:04:47;;;;;;;15.63;6.18;;;;;;;7.75;100.00;102653.66;5042055;28;20028;-70
2021/03/29 05:07:13;;;;;;;15.20;4.22;;;;;;;7.80;100.00;102659.78;5042535;28;20025;-70
2021/03/29 05:09:39;;;;;;;16.50;4.53;;;;;;;7.77;100.00;102662.41;5040408;28;20033;-70
2021/03/29 05:12:10;;;;;;;13.93;3.97;;;;;;;7.70;100.00;102672.09;5021502;28;20052;-69
2021/03/29 05:14:39;;;;;;;12.02;3.90;;;;;;;7.73;100.00;102658.03;5037253;28;20466;-69
2021/03/29 05:17:06;;;;;;;12.70;4.53;;;;;;;7.63;100.00;102658.94;5047758;28;20029;-69
2021/03/29 05:19:32;;;;;;;20.70;5.07;;;;;;;7.63;100.00;102659.84;5040705;28;20052;-69
2021/03/29 05:21:58;;;;;;;15.18;4.97;;;;;;;7.55;100.00;102666.00;5037877;28;20025;-70
2021/03/29 05:24:23;;;;;;;18.98;5.18;;;;;;;7.56;100.00;102671.25;5035459;28;20025;-69
2021/03/29 05:26:49;;;;;;;19.05;4.80;;;;;;;7.52;100.00;102672.13;5034375;28;20029;-70
2021/03/29 05:29:14;;;;;;;18.85;4.63;;;;;;;7.46;100.00;102680.03;5031730;28;20029;-70
2021/03/29 05:31:40;;;;;;;17.05;4.60;;;;;;;7.47;100.00;102679.16;5033709;28;20124;-71
2021/03/29 05:34:07;;;;;;;18.90;4.47;;;;;;;7.36;100.00;102675.69;5034546;28;20025;-69
2021/03/29 05:36:33;;;;;;;23.00;5.03;;;;;;;7.36;100.00;102692.34;5034120;28;20029;-70
2021/03/29 05:38:58;;;;;;;9.05;4.00;;;;;;;7.27;100.00;102692.34;5031422;28;20045;-69
2021/03/29 05:41:23;;;;;;;13.20;4.80;;;;;;;7.45;100.00;102694.97;5033646;28;20712;-69
2021/03/29 05:43:49;;;;;;;18.63;5.35;;;;;;;7.37;100.00;102694.09;5029573;28;20037;-69
2021/03/29 05:46:15;;;;;;;20.08;4.75;;;;;;;7.41;100.00;102687.94;5034017;28;20029;-69
2021/03/29 05:48:40;;;;;;;18.02;5.32;;;;;;;7.31;100.00;102693.22;5023388;28;20037;-69
2021/03/29 05:51:07;;;;;;;15.05;4.85;;;;;;;7.42;100.00;102696.72;5029280;28;20533;-71
2021/03/29 05:53:34;;;;;;;18.70;5.10;;;;;;;7.31;100.00;102698.50;5034245;28;20029;-70
2021/03/29 05:56:00;;;;;;;15.32;4.90;;;;;;;7.34;100.00;102701.13;5037655;28;20128;-67
2021/03/29 06:00:55;;;;;;;22.17;6.20;;;;;;;7.44;100.00;102708.13;5032509;28;20556;-67
2021/03/29 06:03:40;;;;;;;16.15;4.70;;;;;;;7.33;100.00;102710.78;5035632;28;20039;-68
2021/03/29 06:06:11;;;;;;;25.15;5.65;;;;;;;7.35;100.00;102721.28;5029181;28;20032;-68
2021/03/29 06:08:48;;;;;;;20.63;4.63;;;;;;;7.45;100.00;102726.53;5034149;28;20033;-68
2021/03/29 06:11:27;;;;;;;13.13;4.53;;;;;;;7.38;100.00;102723.88;5032117;28;20030;-68
2021/03/29 06:14:14;;;;;;;19.00;5.00;;;;;;;7.46;100.00;102728.28;5003589;28;21036;-68
2021/03/29 06:16:55;;;;;;;18.23;6.85;;;;;;;7.48;100.00;102734.44;5027806;28;20029;-68
2021/03/29 06:19:37;;;;;;;14.30;4.60;;;;;;;7.52;100.00;102736.16;5028581;28;20033;-68
2021/03/29 06:22:26;;;;;;;14.00;5.00;;;;;;;7.59;100.00;102739.66;5033977;28;20634;-69
2021/03/29 06:25:06;;;;;;;10.38;4.00;;;;;;;7.71;100.00;102741.38;5028967;28;20455;-68
2021/03/29 06:27:46;;;;;;;15.18;4.55;;;;;;;7.76;100.00;102744.88;5031763;28;20029;-68
2021/03/29 06:30:11;;;;;;;16.83;4.40;;;;;;;7.83;100.00;102749.28;5028990;28;20033;-68
2021/03/29 06:32:37;;;;;;;13.60;4.43;;;;;;;7.83;100.00;102754.53;5033696;28;20036;-68
2021/03/29 06:35:20;;;;;;;15.05;5.13;;;;;;;7.92;100.00;102748.34;5030473;28;20029;-68
2021/03/29 06:37:45;;;;;;;13.50;3.92;;;;;;;8.02;100.00;102747.44;5032018;28;20761;-67
2021/03/29 06:40:11;;;;;;;11.98;4.65;;;;;;;8.02;100.00;102742.16;5037362;28;20021;-68
2021/03/29 06:42:37;;;;;;;20.08;5.57;;;;;;;8.04;100.00;102743.06;5031240;28;20422;-68
2021/03/29 06:45:35;;;;;;;19.67;4.97;;;;;;;8.13;100.00;102745.63;5033704;28;20031;-68
2021/03/29 06:48:00;;;;;;;21.48;5.07;;;;;;;8.16;100.00;102750.03;5035504;28;20043;-68
2021/03/29 06:50:26;;;;;;;13.55;4.63;;;;;;;8.23;100.00;102763.19;5030172;28;20028;-69
2021/03/29 06:52:52;;;;;;;16.90;4.25;;;;;;;8.30;100.00;102756.13;5014412;28;20029;-67
2021/03/29 06:55:22;;;;;;;14.93;4.00;;;;;;;8.39;100.00;102768.41;5033454;28;20033;-68
2021/03/29 06:58:09;;;;;;;13.10;4.57;;;;;;;8.52;100.00;102756.91;5035045;28;20478;-68
2021/03/29 07:00:38;;;;;;;15.77;3.95;;;;;;;8.49;100.00;102749.91;5034080;28;20048;-67
2021/03/29 07:03:06;;;;;;;14.27;4.30;;;;;;;8.56;100.00;102759.53;5029846;28;20040;-67
2021/03/29 07:05:31;;;;;;;10.75;3.80;;;;;;;8.69;100.00;102751.56;5017801;28;20084;-67
2021/03/29 07:08:00;;;;;;;12.48;3.80;;;;;;;8.73;100.00;102759.41;5032181;28;20051;-70
2021/03/29 07:10:25;;;;;;;11.80;4.40;;;;;;;8.88;100.00;102761.06;5031099;28;20029;-68
2021/03/29 07:12:53;;;;;;;16.67;4.32;;;;;;;8.93;100.00;102764.56;5032992;28;20087;-68
2021/03/29 07:15:19;;;;;;;15.68;3.80;;;;;;;9.00;100.00;102754.84;5030735;28;20033;-67
2021/03/29 07:17:45;;;;;;;19.25;4.60;;;;;;;9.04;100.00;102759.22;5029351;28;20481;-68
2021/03/29 07:20:15;;;;;;;23.33;5.57;;;;;;;9.06;100.00;102771.50;5029204;28;20037;-70
2021/03/29 07:22:42;;;;;;;14.18;4.88;;;;;;;9.09;100.00;102770.63;5029340;28;20173;-68
2021/03/29 07:25:17;;;;;;;16.88;4.50;;;;;;;9.14;100.00;102782.00;5032329;28;20021;-68
2021/03/29 07:27:52;;;;;;;17.15;3.70;;;;;;;9.29;100.00;102783.66;5030717;28;20036;-69
2021/03/29 07:30:38;;;;;;;12.15;3.78;;;;;;;9.31;100.00;102787.16;5033682;28;20194;-71
2021/03/29 07:33:04;;;;;;;18.33;4.15;;;;;;;9.37;100.00;102792.38;5030330;28;20422;-72
2021/03/29 07:35:44;;;;;;;12.25;3.63;;;;;;;9.39;100.00;102797.63;5031226;28;20030;-71
2021/03/29 07:38:09;;;;;;;20.88;4.20;;;;;;;9.39;100.00;102794.97;5035903;28;20116;-71
2021/03/29 07:40:35;;;;;;;13.82;3.30;;;;;;;9.43;100.00;102797.59;5036025;28;20565;-68
2021/03/29 07:43:16;;;;;;;17.35;4.00;;;;;;;9.51;100.00;102811.59;5033125;28;20462;-68
2021/03/29 07:45:45;;;;;;;24.55;5.10;;;;;;;9.57;100.00;102808.91;5035753;28;20044;-72
2021/03/29 07:48:14;;;;;;;19.08;5.82;;;;;;;9.58;100.00;102807.13;5033719;28;20482;-71
2021/03/29 07:50:39;;;;;;;21.30;4.53;;;;;;;9.70;100.00;102814.97;5032882;28;20041;-70
2021/03/29 07:53:07;;;;;;;24.10;5.65;;;;;;;9.67;100.00;102793.84;5025926;28;20029;-69
2021/03/29 07:55:52;;;;;;;23.17;4.60;;;;;;;9.75;100.00;102812.28;5039510;28;20037;-71
2021/03/29 07:58:19;;;;;;;16.77;4.10;;;;;;;9.70;100.00;102809.69;5034756;28;20033;-69
2021/03/29 08:00:48;;;;;;;20.58;4.18;;;;;;;9.71;100.00;102818.47;5031770;28;20103;-70
2021/03/29 08:03:13;;;;;;;26.95;5.40;;;;;;;9.73;100.00;102812.28;5034605;28;20035;-69
2021/03/29 08:05:46;;;;;;;15.50;4.13;;;;;;;9.68;100.00;102815.84;5031269;28;20033;-69
2021/03/29 08:08:23;;;;;;;17.58;4.70;;;;;;;9.84;100.00;102810.44;5034568;28;20072;-71
2021/03/29 08:14:31;;;;;;;12.98;4.30;;;;;;;10.21;100.00;102795.94;5064504;28;20060;-85
2021/03/29 08:29:13;;;;;;;19.55;4.55;;;;;;;10.40;100.00;102801.91;4037008;23;20538;-82
2021/03/29 08:35:58;;;;;;;19.70;4.38;;;;;;;10.56;100.00;102811.38;4933125;29;20053;-87
2021/03/29 08:38:49;;;;;;;22.98;4.60;;;;;;;10.50;100.00;102783.25;4860091;29;20054;-86
2021/03/29 08:45:10;;;;;;;24.83;4.63;;;;;;;10.58;100.00;102793.72;4867636;29;20111;-84
2021/03/29 08:48:00;;;;;;;27.67;6.70;;;;;;;10.78;100.00;102826.06;4866583;29;20105;-85
2021/03/29 08:50:54;;;;;;;20.23;5.07;;;;;;;10.93;100.00;102832.91;4824300;29;20054;-83
2021/03/29 08:59:15;;;;;;;28.55;5.75;;;;;;;11.04;100.00;102845.97;4930617;23;20071;-85
2021/03/29 09:01:41;;;;;;;28.63;5.68;;;;;;;11.05;100.00;102847.75;4915780;29;20016;-85
2021/03/29 09:06:42;;;;;;;16.70;4.07;;;;;;;11.08;100.00;102829.16;5011702;23;20060;-83
2021/03/29 09:09:21;;;;;;;25.95;5.05;;;;;;;11.23;100.00;102844.81;4971711;28;20150;-85
2021/03/29 09:11:48;;;;;;;20.00;4.57;;;;;;;11.26;100.00;102858.00;4973633;28;20039;-84
2021/03/29 09:14:39;;;;;;;18.88;4.55;;;;;;;11.21;100.00;102857.19;4962393;28;20059;-89
2021/03/29 09:17:05;;;;;;;19.25;4.63;;;;;;;11.09;100.00;102846.78;4949746;29;20038;-85
2021/03/29 09:19:33;;;;;;;18.55;4.50;;;;;;;11.32;100.00;102864.97;4972698;28;20039;-86
2021/03/29 09:22:26;;;;;;;13.82;4.18;;;;;;;11.42;100.00;102869.22;4967374;29;20023;-89
2021/03/29 09:24:51;;;;;;;18.27;4.68;;;;;;;11.31;100.00;102863.22;4965547;28;20036;-88
2021/03/29 09:27:34;;;;;;;15.77;4.45;;;;;;;11.33;100.00;102851.72;4965830;28;20058;-88
2021/03/29 09:30:01;;;;;;;9.73;3.90;;;;;;;11.43;100.00;102855.09;4966814;28;20045;-86
2021/03/29 09:32:30;;;;;;;16.70;4.50;;;;;;;11.55;100.00;102888.47;4959540;28;20031;-87
2021/03/29 09:35:28;;;;;;;15.65;4.00;;;;;;;11.73;100.00;102893.44;4971155;28;20047;-86
2021/03/29 09:38:12;;;;;;;24.08;4.50;;;;;;;11.89;100.00;102899.38;4956598;29;20616;-87
2021/03/29 09:40:45;;;;;;;13.38;4.57;;;;;;;11.63;100.00;102902.44;4954312;29;20038;-86
2021/03/29 09:44:05;;;;;;;17.80;4.10;;;;;;;11.80;100.00;102907.47;4949634;29;20031;-87
2021/03/29 09:46:33;;;;;;;17.80;4.95;;;;;;;11.92;100.00;102894.91;4964719;28;20519;-85
2021/03/29 09:49:51;;;;;;;17.77;3.90;;;;;;;12.08;100.00;102899.94;4974640;29;20035;-86
2021/03/29 09:52:17;;;;;;;;;;;;;;;12.07;100.00;102903.50;4963387;29;20043;-86
2021/03/29 09:54:46;;;;;;;18.05;3.70;;;;;;;12.08;100.00;102900.81;4958184;29;19918;-85
2021/03/29 10:03:45;;;;;;;9.80;4.30;;;;;;;12.74;100.00;102899.53;5228633;23;20046;-85
2021/03/29 10:07:03;;;;;;;18.13;4.53;;;;;;;12.87;100.00;102902.81;4953183;28;20029;-85
2021/03/29 10:10:37;;;;;;;16.13;4.10;;;;;;;13.23;100.00;102889.66;4952753;29;20059;-85
2021/03/29 10:13:55;;;;;;;12.80;4.43;;;;;;;13.70;100.00;102896.47;4848835;29;20037;-86
2021/03/29 10:17:37;;;;;;;14.75;4.28;;;;;;;13.99;100.00;102906.38;4852589;29;20038;-85
2021/03/29 11:04:08;;;;;;;20.30;5.22;;;;;;;17.27;83.57;102909.88;4881426;23;20059;-82
2021/03/29 11:07:27;;;;;;;22.73;4.50;;;;;;;17.12;81.82;102919.41;4934966;29;20036;-80
2021/03/29 11:10:46;;;;;;;16.50;4.15;;;;;;;17.30;78.39;102915.97;4926377;29;20020;-82
2021/03/29 11:14:05;;;;;;;;;;;;;;;17.54;72.86;102913.25;4913687;29;20044;-84
2021/03/29 11:34:59;;;;;;;15.70;4.90;;;;;;;18.73;58.49;102899.22;1237165;23;20062;-81
2021/03/29 11:38:08;;;;;;;24.38;4.10;;;;;;;18.32;56.82;102899.22;4956351;29;20031;-83
2021/03/29 11:44:15;;;;;;;17.58;5.15;;;;;;;18.88;55.29;102893.16;4951133;29;20052;-83
2021/03/29 11:47:01;;;;;;;24.02;4.38;;;;;;;18.75;53.53;102887.47;4941710;29;20044;-84
2021/03/29 11:49:34;;;;;;;31.55;5.47;;;;;;;18.13;53.27;102896.53;4936486;29;20046;-82
2021/03/29 11:51:59;;;;;;;17.23;4.80;;;;;;;18.86;51.94;102870.91;4945678;29;20122;-82
2021/03/29 11:54:24;;;;;;;17.05;4.22;;;;;;;19.41;49.67;102893.22;4929190;29;20114;-83
2021/03/29 11:56:50;;;;;;;12.13;4.97;;;;;;;19.57;47.45;102897.84;4947666;29;20122;-83
2021/03/29 11:59:16;;;;;;;16.10;4.68;;;;;;;19.08;48.98;102895.75;4948198;29;20038;-84
2021/03/29 12:01:50;;;;;;;19.63;3.83;;;;;;;19.36;45.44;102899.75;4919879;29;20122;-82
2021/03/29 12:04:22;;;;;;;16.73;4.32;;;;;;;19.65;45.80;102879.59;4947915;29;20036;-84
2021/03/29 12:09:27;;;;;;;38.78;5.18;;;;;;;20.29;42.73;102886.97;4934707;29;20148;-81
2021/03/29 12:12:03;;;;;;;38.97;5.40;;;;;;;20.43;41.03;102868.31;4959762;28;20050;-82
2021/03/29 12:14:47;;;;;;;22.45;4.70;;;;;;;20.22;40.57;102917.78;4963409;29;20015;-83
2021/03/29 12:17:13;;;;;;;19.95;3.95;;;;;;;19.95;40.70;102885.19;4958510;29;20023;-81
2021/03/29 12:19:42;;;;;;;14.48;4.82;;;;;;;20.44;40.81;102877.25;4955989;29;20034;-81
2021/03/29 12:22:35;;;;;;;15.73;3.58;;;;;;;20.11;39.12;102888.81;4938179;29;20100;-82
2021/03/29 12:25:05;;;;;;;25.40;4.78;;;;;;;20.59;39.12;102883.63;4956336;29;20115;-83
2021/03/29 12:27:31;;;;;;;20.35;4.60;;;;;;;20.06;39.74;102898.91;4954286;29;20034;-79
2021/03/29 12:30:05;;;;;;;20.58;4.95;;;;;;;20.07;38.67;102897.97;4952884;29;20035;-84
2021/03/29 12:32:33;;;;;;;12.95;4.53;;;;;;;20.74;38.50;102884.63;4961959;29;20019;-83
2021/03/29 12:35:44;;;;;;;15.73;4.55;;;;;;;20.34;38.66;102889.44;4926722;29;20091;-83
2021/03/29 12:38:14;;;;;;;16.52;4.82;;;;;;;20.26;38.51;102908.63;4894508;29;20082;-83
2021/03/29 12:40:45;;;;;;;20.15;5.20;;;;;;;20.60;38.15;102893.44;4912191;29;20119;-83
2021/03/29 12:43:16;;;;;;;17.77;4.40;;;;;;;20.54;37.30;102878.50;4913693;29;20052;-84
2021/03/29 12:45:44;;;;;;;11.00;3.95;;;;;;;20.67;37.77;102884.06;4907914;29;20066;-79
2021/03/29 12:48:12;;;;;;;20.27;4.45;;;;;;;20.52;37.55;102892.97;4909847;29;20048;-79
2021/03/29 16:57:49;;;;;;;9.48;3.47;;;;;;;21.02;33.39;102870.50;4846343;23;20088;-82
2021/03/29 17:01:01;;;;;;;10.85;3.75;;;;;;;19.99;35.28;102891.28;4916522;29;20060;-81
2021/03/29 17:04:18;;;;;;;8.32;3.47;;;;;;;19.86;36.19;102883.84;4890239;29;20042;-83
2021/03/29 17:07:07;;;;;;;8.43;3.83;;;;;;;19.88;35.98;102890.03;4880474;29;20096;-83
2021/03/29 17:10:21;;;;;;;5.90;3.15;;;;;;;19.96;36.09;102894.13;4870137;29;20041;-83
2021/03/29 17:13:03;;;;;;;14.10;4.30;;;;;;;19.98;36.26;102892.19;4868694;29;20061;-82
2021/03/29 17:16:14;;;;;;;6.60;3.03;;;;;;;19.62;36.35;102887.78;4871434;29;20017;-84
2021/03/29 17:19:19;;;;;;;6.70;3.35;;;;;;;19.53;37.28;102889.09;4879354;29;20044;-84
2021/03/29 17:21:45;;;;;;;8.52;3.15;;;;;;;18.56;39.89;102881.19;4870914;29;20515;-85
2021/03/29 17:24:30;;;;;;;6.20;3.15;;;;;;;18.42;39.50;102876.47;4859028;29;20048;-88
2021/03/29 17:26:56;;;;;;;8.30;4.20;;;;;;;18.21;40.28;102880.97;4845878;29;20146;-83
2021/03/29 17:29:21;;;;;;;10.23;4.57;;;;;;;18.17;40.54;102879.38;4859306;29;20042;-84
2021/03/29 17:31:48;;;;;;;13.13;3.40;;;;;;;17.95;40.94;102887.47;4874192;29;20033;-84
2021/03/29 17:34:13;;;;;;;7.57;3.50;;;;;;;17.85;42.14;102886.13;4900721;29;20054;-84
2021/03/29 17:36:39;;;;;;;11.63;3.75;;;;;;;17.45;42.72;102886.91;4911330;29;20064;-84
2021/03/29 17:39:26;;;;;;;12.13;3.88;;;;;;;17.01;44.18;102879.72;4911939;29;20016;-83